sensor_id;sensor_type;location;lat;lon;timestamp;P1;durP1;ratioP1;P2;durP2;ratioP2
65202;SDS011;51788;45.124;38.966;2022-12-10T00:03:38;31.02;;;17.92;;
65202;SDS011;51788;45.124;38.966;2022-12-10T00:06:06;28.52;;;17.58;;
65202;SDS011;51788;45.124;38.966;2022-12-10T00:08:33;27.33;;;16.75;;
65202;SDS011;51788;45.124;38.966;2022-12-10T00:11:00;33.25;;;19.52;;
65202;SDS011;51788;45.124;38.966;2022-12-10T00:13:28;25.48;;;17.50;;
65202;SDS011;51788;45.124;38.966;2022-12-10T00:15:54;28.13;;;16.58;;
65202;SDS011;51788;45.124;38.966;2022-12-10T00:18:20;28.15;;;18.15;;
65202;SDS011;51788;45.124;38.966;2022-12-10T00:20:46;30.65;;;18.85;;
65202;SDS011;51788;45.124;38.966;2022-12-10T00:23:12;34.50;;;17.63;;
65202;SDS011;51788;45.124;38.966;2022-12-10T00:25:38;39.95;;;18.35;;
65202;SDS011;51788;45.124;38.966;2022-12-10T00:28:04;35.28;;;19.48;;
65202;SDS011;51788;45.124;38.966;2022-12-10T00:30:30;29.52;;;17.20;;
65202;SDS011;51788;45.124;38.966;2022-12-10T00:32:56;36.05;;;20.80;;
65202;SDS011;51788;45.124;38.966;2022-12-10T00:35:22;36.70;;;18.13;;
65202;SDS011;51788;45.124;38.966;2022-12-10T00:37:47;30.73;;;18.65;;
65202;SDS011;51788;45.124;38.966;2022-12-10T00:40:14;30.67;;;18.58;;
65202;SDS011;51788;45.124;38.966;2022-12-10T00:42:40;35.80;;;20.23;;
65202;SDS011;51788;45.124;38.966;2022-12-10T00:45:06;38.00;;;19.55;;
65202;SDS011;51788;45.124;38.966;2022-12-10T00:47:32;42.17;;;21.10;;
65202;SDS011;51788;45.124;38.966;2022-12-10T00:49:58;32.70;;;19.05;;
65202;SDS011;51788;45.124;38.966;2022-12-10T00:52:24;36.00;;;19.75;;
65202;SDS011;51788;45.124;38.966;2022-12-10T00:54:50;33.80;;;18.25;;
65202;SDS011;51788;45.124;38.966;2022-12-10T00:57:16;34.92;;;18.77;;
65202;SDS011;51788;45.124;38.966;2022-12-10T00:59:42;38.33;;;20.02;;
65202;SDS011;51788;45.124;38.966;2022-12-10T01:02:08;29.15;;;18.23;;
65202;SDS011;51788;45.124;38.966;2022-12-10T01:04:34;39.03;;;20.00;;
65202;SDS011;51788;45.124;38.966;2022-12-10T01:07:00;29.48;;;17.02;;
65202;SDS011;51788;45.124;38.966;2022-12-10T01:09:29;33.30;;;17.08;;
65202;SDS011;51788;45.124;38.966;2022-12-10T01:11:56;30.13;;;16.40;;
65202;SDS011;51788;45.124;38.966;2022-12-10T01:14:28;31.30;;;17.42;;
65202;SDS011;51788;45.124;38.966;2022-12-10T01:16:59;39.80;;;18.25;;
65202;SDS011;51788;45.124;38.966;2022-12-10T01:19:29;26.50;;;16.05;;
65202;SDS011;51788;45.124;38.966;2022-12-10T01:22:00;30.42;;;17.75;;
65202;SDS011;51788;45.124;38.966;2022-12-10T01:24:28;33.60;;;18.85;;
65202;SDS011;51788;45.124;38.966;2022-12-10T01:26:55;29.67;;;17.85;;
65202;SDS011;51788;45.124;38.966;2022-12-10T01:29:22;28.65;;;18.08;;
65202;SDS011;51788;45.124;38.966;2022-12-10T01:31:50;32.13;;;18.52;;
65202;SDS011;51788;45.124;38.966;2022-12-10T01:34:17;28.35;;;17.50;;
65202;SDS011;51788;45.124;38.966;2022-12-10T01:36:44;33.00;;;16.85;;
65202;SDS011;51788;45.124;38.966;2022-12-10T01:39:14;26.05;;;18.30;;
65202;SDS011;51788;45.124;38.966;2022-12-10T01:41:42;24.83;;;16.30;;
65202;SDS011;51788;45.124;38.966;2022-12-10T01:46:37;34.22;;;16.73;;
65202;SDS011;51788;45.124;38.966;2022-12-10T01:49:05;33.30;;;18.38;;
65202;SDS011;51788;45.124;38.966;2022-12-10T01:51:35;32.97;;;17.27;;
65202;SDS011;51788;45.124;38.966;2022-12-10T01:54:05;33.10;;;19.90;;
65202;SDS011;51788;45.124;38.966;2022-12-10T01:56:35;29.27;;;17.15;;
65202;SDS011;51788;45.124;38.966;2022-12-10T02:01:41;24.33;;;15.18;;
65202;SDS011;51788;45.124;38.966;2022-12-10T02:05:08;38.17;;;17.90;;
65202;SDS011;51788;45.124;38.966;2022-12-10T02:10:30;29.15;;;18.33;;
65202;SDS011;51788;45.124;38.966;2022-12-10T02:16:08;33.58;;;17.73;;
65202;SDS011;51788;45.124;38.966;2022-12-10T02:18:37;23.42;;;16.30;;
65202;SDS011;51788;45.124;38.966;2022-12-10T02:21:13;25.23;;;16.40;;
65202;SDS011;51788;45.124;38.966;2022-12-10T02:23:46;26.13;;;17.17;;
65202;SDS011;51788;45.124;38.966;2022-12-10T02:26:25;27.90;;;17.85;;
65202;SDS011;51788;45.124;38.966;2022-12-10T02:29:01;28.75;;;17.90;;
65202;SDS011;51788;45.124;38.966;2022-12-10T02:34:25;23.63;;;16.67;;
65202;SDS011;51788;45.124;38.966;2022-12-10T02:36:56;27.88;;;17.33;;
65202;SDS011;51788;45.124;38.966;2022-12-10T02:39:27;30.95;;;16.65;;
65202;SDS011;51788;45.124;38.966;2022-12-10T02:41:59;30.38;;;15.93;;
65202;SDS011;51788;45.124;38.966;2022-12-10T02:44:28;31.52;;;18.55;;
65202;SDS011;51788;45.124;38.966;2022-12-10T02:46:57;35.35;;;16.90;;
65202;SDS011;51788;45.124;38.966;2022-12-10T02:49:31;26.42;;;16.35;;
65202;SDS011;51788;45.124;38.966;2022-12-10T02:52:05;38.60;;;17.67;;
65202;SDS011;51788;45.124;38.966;2022-12-10T03:08:38;35.83;;;19.75;;
65202;SDS011;51788;45.124;38.966;2022-12-10T03:11:12;28.58;;;18.27;;
65202;SDS011;51788;45.124;38.966;2022-12-10T03:13:43;27.90;;;16.30;;
65202;SDS011;51788;45.124;38.966;2022-12-10T03:16:17;27.83;;;17.55;;
65202;SDS011;51788;45.124;38.966;2022-12-10T03:18:44;36.88;;;18.08;;
65202;SDS011;51788;45.124;38.966;2022-12-10T03:21:14;30.40;;;18.67;;
65202;SDS011;51788;45.124;38.966;2022-12-10T03:23:42;30.75;;;16.45;;
65202;SDS011;51788;45.124;38.966;2022-12-10T03:26:11;33.95;;;18.88;;
65202;SDS011;51788;45.124;38.966;2022-12-10T03:28:38;29.60;;;19.02;;
65202;SDS011;51788;45.124;38.966;2022-12-10T03:31:09;33.55;;;19.27;;
65202;SDS011;51788;45.124;38.966;2022-12-10T03:33:36;30.15;;;18.35;;
65202;SDS011;51788;45.124;38.966;2022-12-10T03:36:04;28.73;;;18.73;;
65202;SDS011;51788;45.124;38.966;2022-12-10T03:38:31;36.28;;;18.70;;
65202;SDS011;51788;45.124;38.966;2022-12-10T03:40:58;31.10;;;18.70;;
65202;SDS011;51788;45.124;38.966;2022-12-10T03:43:24;33.47;;;19.35;;
65202;SDS011;51788;45.124;38.966;2022-12-10T03:45:50;28.35;;;17.65;;
65202;SDS011;51788;45.124;38.966;2022-12-10T03:48:16;23.92;;;18.02;;
65202;SDS011;51788;45.124;38.966;2022-12-10T03:50:42;28.90;;;18.88;;
65202;SDS011;51788;45.124;38.966;2022-12-10T03:53:08;35.65;;;18.35;;
65202;SDS011;51788;45.124;38.966;2022-12-10T03:55:33;28.27;;;17.00;;
65202;SDS011;51788;45.124;38.966;2022-12-10T03:57:59;31.48;;;17.65;;
65202;SDS011;51788;45.124;38.966;2022-12-10T04:00:25;29.63;;;18.42;;
65202;SDS011;51788;45.124;38.966;2022-12-10T04:02:51;28.60;;;17.73;;
65202;SDS011;51788;45.124;38.966;2022-12-10T04:05:17;32.70;;;17.75;;
65202;SDS011;51788;45.124;38.966;2022-12-10T04:07:43;28.77;;;17.40;;
65202;SDS011;51788;45.124;38.966;2022-12-10T04:10:09;33.88;;;19.15;;
65202;SDS011;51788;45.124;38.966;2022-12-10T04:12:35;40.17;;;19.45;;
65202;SDS011;51788;45.124;38.966;2022-12-10T04:15:01;31.17;;;18.10;;
65202;SDS011;51788;45.124;38.966;2022-12-10T04:17:45;31.63;;;19.30;;
65202;SDS011;51788;45.124;38.966;2022-12-10T04:20:11;29.88;;;18.77;;
65202;SDS011;51788;45.124;38.966;2022-12-10T04:23:07;25.63;;;17.30;;
65202;SDS011;51788;45.124;38.966;2022-12-10T04:25:52;27.27;;;16.13;;
65202;SDS011;51788;45.124;38.966;2022-12-10T04:28:36;31.67;;;18.35;;
65202;SDS011;51788;45.124;38.966;2022-12-10T04:31:02;26.08;;;16.50;;
65202;SDS011;51788;45.124;38.966;2022-12-10T04:33:28;28.20;;;16.85;;
65202;SDS011;51788;45.124;38.966;2022-12-10T04:35:54;35.85;;;18.05;;
65202;SDS011;51788;45.124;38.966;2022-12-10T04:38:20;25.80;;;16.60;;
65202;SDS011;51788;45.124;38.966;2022-12-10T04:40:46;33.78;;;18.70;;
65202;SDS011;51788;45.124;38.966;2022-12-10T04:43:12;30.70;;;18.77;;
65202;SDS011;51788;45.124;38.966;2022-12-10T04:45:38;33.58;;;18.20;;
65202;SDS011;51788;45.124;38.966;2022-12-10T04:48:04;33.15;;;17.20;;
65202;SDS011;51788;45.124;38.966;2022-12-10T04:50:31;28.45;;;18.27;;
65202;SDS011;51788;45.124;38.966;2022-12-10T04:52:57;40.90;;;18.42;;
65202;SDS011;51788;45.124;38.966;2022-12-10T04:55:22;30.55;;;18.00;;
65202;SDS011;51788;45.124;38.966;2022-12-10T04:57:48;31.70;;;17.90;;
65202;SDS011;51788;45.124;38.966;2022-12-10T05:00:14;40.25;;;18.02;;
65202;SDS011;51788;45.124;38.966;2022-12-10T05:02:41;33.40;;;18.80;;
65202;SDS011;51788;45.124;38.966;2022-12-10T05:05:07;35.60;;;18.58;;
65202;SDS011;51788;45.124;38.966;2022-12-10T05:07:33;32.58;;;17.38;;
65202;SDS011;51788;45.124;38.966;2022-12-10T05:09:59;36.53;;;18.38;;
65202;SDS011;51788;45.124;38.966;2022-12-10T05:12:24;33.70;;;17.42;;
65202;SDS011;51788;45.124;38.966;2022-12-10T05:14:50;36.33;;;17.65;;
65202;SDS011;51788;45.124;38.966;2022-12-10T05:17:16;28.63;;;18.85;;
65202;SDS011;51788;45.124;38.966;2022-12-10T05:19:42;24.40;;;17.25;;
65202;SDS011;51788;45.124;38.966;2022-12-10T05:22:08;24.33;;;16.23;;
65202;SDS011;51788;45.124;38.966;2022-12-10T05:24:52;28.23;;;16.20;;
65202;SDS011;51788;45.124;38.966;2022-12-10T05:27:18;30.05;;;15.30;;
65202;SDS011;51788;45.124;38.966;2022-12-10T05:29:44;26.38;;;16.50;;
65202;SDS011;51788;45.124;38.966;2022-12-10T05:32:10;36.20;;;18.65;;
65202;SDS011;51788;45.124;38.966;2022-12-10T05:34:36;30.83;;;16.30;;
65202;SDS011;51788;45.124;38.966;2022-12-10T05:37:02;30.83;;;18.63;;
65202;SDS011;51788;45.124;38.966;2022-12-10T05:39:28;28.50;;;17.88;;
65202;SDS011;51788;45.124;38.966;2022-12-10T05:41:54;28.80;;;17.73;;
65202;SDS011;51788;45.124;38.966;2022-12-10T05:44:20;35.38;;;18.63;;
65202;SDS011;51788;45.124;38.966;2022-12-10T05:46:46;31.00;;;17.48;;
65202;SDS011;51788;45.124;38.966;2022-12-10T05:49:12;25.02;;;16.00;;
65202;SDS011;51788;45.124;38.966;2022-12-10T05:51:38;27.45;;;15.95;;
65202;SDS011;51788;45.124;38.966;2022-12-10T05:54:04;37.92;;;16.40;;
65202;SDS011;51788;45.124;38.966;2022-12-10T05:56:31;25.88;;;16.83;;
65202;SDS011;51788;45.124;38.966;2022-12-10T05:58:59;27.80;;;15.95;;
65202;SDS011;51788;45.124;38.966;2022-12-10T06:01:28;27.30;;;16.80;;
65202;SDS011;51788;45.124;38.966;2022-12-10T06:03:56;49.08;;;17.35;;
65202;SDS011;51788;45.124;38.966;2022-12-10T06:06:25;53.03;;;16.80;;
65202;SDS011;51788;45.124;38.966;2022-12-10T06:08:53;32.03;;;15.82;;
65202;SDS011;51788;45.124;38.966;2022-12-10T06:11:20;31.30;;;16.85;;
65202;SDS011;51788;45.124;38.966;2022-12-10T06:13:47;31.05;;;15.35;;
65202;SDS011;51788;45.124;38.966;2022-12-10T06:16:13;29.27;;;16.05;;
65202;SDS011;51788;45.124;38.966;2022-12-10T06:18:40;28.27;;;14.50;;
65202;SDS011;51788;45.124;38.966;2022-12-10T06:21:08;32.20;;;14.48;;
65202;SDS011;51788;45.124;38.966;2022-12-10T06:23:36;23.23;;;15.10;;
65202;SDS011;51788;45.124;38.966;2022-12-10T06:26:07;25.25;;;15.18;;
65202;SDS011;51788;45.124;38.966;2022-12-10T06:28:34;50.75;;;16.02;;
65202;SDS011;51788;45.124;38.966;2022-12-10T06:31:00;36.28;;;15.52;;
65202;SDS011;51788;45.124;38.966;2022-12-10T06:33:26;25.25;;;15.57;;
65202;SDS011;51788;45.124;38.966;2022-12-10T06:35:52;23.02;;;13.98;;
65202;SDS011;51788;45.124;38.966;2022-12-10T06:38:18;29.48;;;14.35;;
65202;SDS011;51788;45.124;38.966;2022-12-10T06:40:44;35.22;;;15.77;;
65202;SDS011;51788;45.124;38.966;2022-12-10T06:43:10;28.23;;;14.77;;
65202;SDS011;51788;45.124;38.966;2022-12-10T06:45:40;34.03;;;15.18;;
65202;SDS011;51788;45.124;38.966;2022-12-10T06:48:06;35.28;;;14.88;;
65202;SDS011;51788;45.124;38.966;2022-12-10T06:50:33;21.13;;;14.93;;
65202;SDS011;51788;45.124;38.966;2022-12-10T06:52:59;23.38;;;13.77;;
65202;SDS011;51788;45.124;38.966;2022-12-10T06:55:25;30.30;;;14.68;;
65202;SDS011;51788;45.124;38.966;2022-12-10T06:57:51;21.20;;;14.38;;
65202;SDS011;51788;45.124;38.966;2022-12-10T07:00:18;26.10;;;13.15;;
65202;SDS011;51788;45.124;38.966;2022-12-10T07:02:45;24.17;;;13.40;;
65202;SDS011;51788;45.124;38.966;2022-12-10T07:05:11;23.17;;;14.27;;
65202;SDS011;51788;45.124;38.966;2022-12-10T07:07:37;27.60;;;16.00;;
65202;SDS011;51788;45.124;38.966;2022-12-10T07:10:03;26.85;;;14.85;;
65202;SDS011;51788;45.124;38.966;2022-12-10T07:12:30;38.72;;;16.92;;
65202;SDS011;51788;45.124;38.966;2022-12-10T07:14:55;41.53;;;15.38;;
65202;SDS011;51788;45.124;38.966;2022-12-10T07:17:21;25.15;;;13.80;;
65202;SDS011;51788;45.124;38.966;2022-12-10T07:19:47;22.55;;;15.30;;
65202;SDS011;51788;45.124;38.966;2022-12-10T07:22:13;25.40;;;14.52;;
65202;SDS011;51788;45.124;38.966;2022-12-10T07:24:39;24.05;;;14.80;;
65202;SDS011;51788;45.124;38.966;2022-12-10T07:27:06;26.90;;;14.70;;
65202;SDS011;51788;45.124;38.966;2022-12-10T07:29:33;25.10;;;14.60;;
65202;SDS011;51788;45.124;38.966;2022-12-10T07:31:59;26.17;;;14.18;;
65202;SDS011;51788;45.124;38.966;2022-12-10T07:34:25;25.83;;;13.27;;
65202;SDS011;51788;45.124;38.966;2022-12-10T07:36:51;27.45;;;13.63;;
65202;SDS011;51788;45.124;38.966;2022-12-10T07:39:17;25.65;;;13.70;;
65202;SDS011;51788;45.124;38.966;2022-12-10T07:41:44;28.38;;;13.80;;
65202;SDS011;51788;45.124;38.966;2022-12-10T07:44:12;30.73;;;14.05;;
65202;SDS011;51788;45.124;38.966;2022-12-10T07:46:38;28.10;;;13.70;;
65202;SDS011;51788;45.124;38.966;2022-12-10T07:49:05;32.75;;;14.10;;
65202;SDS011;51788;45.124;38.966;2022-12-10T07:51:30;24.83;;;13.63;;
65202;SDS011;51788;45.124;38.966;2022-12-10T07:53:56;22.88;;;14.38;;
65202;SDS011;51788;45.124;38.966;2022-12-10T07:56:23;29.92;;;14.30;;
65202;SDS011;51788;45.124;38.966;2022-12-10T07:58:50;26.27;;;13.93;;
65202;SDS011;51788;45.124;38.966;2022-12-10T08:01:18;22.20;;;13.82;;
65202;SDS011;51788;45.124;38.966;2022-12-10T08:03:47;26.48;;;14.93;;
65202;SDS011;51788;45.124;38.966;2022-12-10T08:06:15;24.02;;;13.77;;
65202;SDS011;51788;45.124;38.966;2022-12-10T08:08:44;23.02;;;14.27;;
65202;SDS011;51788;45.124;38.966;2022-12-10T08:11:10;20.98;;;15.00;;
65202;SDS011;51788;45.124;38.966;2022-12-10T08:13:38;17.90;;;13.32;;
65202;SDS011;51788;45.124;38.966;2022-12-10T08:16:05;22.00;;;15.32;;
65202;SDS011;51788;45.124;38.966;2022-12-10T08:18:42;26.73;;;14.80;;
65202;SDS011;51788;45.124;38.966;2022-12-10T08:21:15;39.63;;;14.70;;
65202;SDS011;51788;45.124;38.966;2022-12-10T08:23:43;22.88;;;12.93;;
65202;SDS011;51788;45.124;38.966;2022-12-10T08:26:10;33.92;;;13.05;;
65202;SDS011;51788;45.124;38.966;2022-12-10T08:28:40;34.13;;;14.02;;
65202;SDS011;51788;45.124;38.966;2022-12-10T08:31:07;24.80;;;13.88;;
65202;SDS011;51788;45.124;38.966;2022-12-10T08:33:35;21.83;;;12.70;;
65202;SDS011;51788;45.124;38.966;2022-12-10T08:36:03;41.28;;;14.20;;
65202;SDS011;51788;45.124;38.966;2022-12-10T08:38:30;41.50;;;13.65;;
65202;SDS011;51788;45.124;38.966;2022-12-10T08:40:57;19.70;;;12.68;;
65202;SDS011;51788;45.124;38.966;2022-12-10T08:43:23;24.95;;;14.18;;
65202;SDS011;51788;45.124;38.966;2022-12-10T08:45:49;35.92;;;16.05;;
65202;SDS011;51788;45.124;38.966;2022-12-10T08:48:15;22.88;;;13.95;;
65202;SDS011;51788;45.124;38.966;2022-12-10T08:50:41;21.88;;;13.98;;
65202;SDS011;51788;45.124;38.966;2022-12-10T08:53:07;27.83;;;13.57;;
65202;SDS011;51788;45.124;38.966;2022-12-10T08:55:37;32.00;;;14.07;;
65202;SDS011;51788;45.124;38.966;2022-12-10T08:58:05;24.88;;;13.82;;
65202;SDS011;51788;45.124;38.966;2022-12-10T09:00:31;28.67;;;15.00;;
65202;SDS011;51788;45.124;38.966;2022-12-10T09:02:57;20.45;;;13.50;;
65202;SDS011;51788;45.124;38.966;2022-12-10T09:05:23;25.08;;;13.18;;
65202;SDS011;51788;45.124;38.966;2022-12-10T09:07:49;23.88;;;13.32;;
65202;SDS011;51788;45.124;38.966;2022-12-10T09:10:15;28.38;;;12.93;;
65202;SDS011;51788;45.124;38.966;2022-12-10T09:12:43;23.52;;;12.95;;
65202;SDS011;51788;45.124;38.966;2022-12-10T09:15:09;20.20;;;12.27;;
65202;SDS011;51788;45.124;38.966;2022-12-10T09:17:36;23.05;;;12.60;;
65202;SDS011;51788;45.124;38.966;2022-12-10T09:20:03;27.83;;;12.68;;
65202;SDS011;51788;45.124;38.966;2022-12-10T09:22:31;24.95;;;12.85;;
65202;SDS011;51788;45.124;38.966;2022-12-10T09:24:57;25.48;;;14.27;;
65202;SDS011;51788;45.124;38.966;2022-12-10T09:27:23;30.27;;;15.13;;
65202;SDS011;51788;45.124;38.966;2022-12-10T09:29:50;23.23;;;13.48;;
65202;SDS011;51788;45.124;38.966;2022-12-10T09:32:17;28.38;;;13.48;;
65202;SDS011;51788;45.124;38.966;2022-12-10T09:34:43;27.35;;;13.13;;
65202;SDS011;51788;45.124;38.966;2022-12-10T09:37:09;22.58;;;12.70;;
65202;SDS011;51788;45.124;38.966;2022-12-10T09:39:35;22.30;;;13.23;;
65202;SDS011;51788;45.124;38.966;2022-12-10T09:44:39;25.13;;;11.88;;
65202;SDS011;51788;45.124;38.966;2022-12-10T09:47:40;23.33;;;12.18;;
65202;SDS011;51788;45.124;38.966;2022-12-10T09:50:28;17.50;;;9.70;;
65202;SDS011;51788;45.124;38.966;2022-12-10T09:52:59;16.50;;;7.45;;
65202;SDS011;51788;45.124;38.966;2022-12-10T09:55:36;12.10;;;7.20;;
65202;SDS011;51788;45.124;38.966;2022-12-10T09:58:05;9.80;;;7.63;;
65202;SDS011;51788;45.124;38.966;2022-12-10T10:00:39;18.30;;;7.80;;
65202;SDS011;51788;45.124;38.966;2022-12-10T10:03:09;19.45;;;7.22;;
65202;SDS011;51788;45.124;38.966;2022-12-10T10:05:40;12.77;;;6.72;;
65202;SDS011;51788;45.124;38.966;2022-12-10T10:11:01;11.18;;;6.90;;
65202;SDS011;51788;45.124;38.966;2022-12-10T10:13:34;11.18;;;7.13;;
65202;SDS011;51788;45.124;38.966;2022-12-10T10:18:46;16.08;;;8.50;;
65202;SDS011;51788;45.124;38.966;2022-12-10T10:21:35;17.10;;;8.52;;
65202;SDS011;51788;45.124;38.966;2022-12-10T10:24:04;14.38;;;7.85;;
65202;SDS011;51788;45.124;38.966;2022-12-10T10:26:32;14.95;;;8.65;;
65202;SDS011;51788;45.124;38.966;2022-12-10T10:28:59;10.48;;;9.20;;
65202;SDS011;51788;45.124;38.966;2022-12-10T10:31:28;14.70;;;8.98;;
65202;SDS011;51788;45.124;38.966;2022-12-10T10:33:57;17.65;;;7.93;;
65202;SDS011;51788;45.124;38.966;2022-12-10T10:36:26;16.55;;;8.82;;
65202;SDS011;51788;45.124;38.966;2022-12-10T10:38:54;11.65;;;8.90;;
65202;SDS011;51788;45.124;38.966;2022-12-10T10:41:20;30.92;;;9.57;;
65202;SDS011;51788;45.124;38.966;2022-12-10T10:43:48;23.83;;;8.73;;
65202;SDS011;51788;45.124;38.966;2022-12-10T10:46:24;16.45;;;9.35;;
65202;SDS011;51788;45.124;38.966;2022-12-10T10:48:51;15.30;;;8.00;;
65202;SDS011;51788;45.124;38.966;2022-12-10T10:51:21;19.75;;;7.90;;
65202;SDS011;51788;45.124;38.966;2022-12-10T10:53:51;14.90;;;8.00;;
65202;SDS011;51788;45.124;38.966;2022-12-10T10:56:23;13.95;;;7.85;;
65202;SDS011;51788;45.124;38.966;2022-12-10T10:58:52;9.55;;;7.90;;
65202;SDS011;51788;45.124;38.966;2022-12-10T11:01:23;8.80;;;7.47;;
65202;SDS011;51788;45.124;38.966;2022-12-10T11:03:55;12.18;;;8.48;;
65202;SDS011;51788;45.124;38.966;2022-12-10T11:06:23;22.30;;;8.07;;
65202;SDS011;51788;45.124;38.966;2022-12-10T11:08:50;8.93;;;7.88;;
65202;SDS011;51788;45.124;38.966;2022-12-10T11:11:22;9.73;;;6.53;;
65202;SDS011;51788;45.124;38.966;2022-12-10T11:16:47;18.50;;;8.35;;
65202;SDS011;51788;45.124;38.966;2022-12-10T11:19:18;12.60;;;8.02;;
65202;SDS011;51788;45.124;38.966;2022-12-10T11:21:46;18.70;;;8.23;;
65202;SDS011;51788;45.124;38.966;2022-12-10T11:24:14;14.40;;;7.25;;
65202;SDS011;51788;45.124;38.966;2022-12-10T11:29:47;19.77;;;7.95;;
65202;SDS011;51788;45.124;38.966;2022-12-10T11:32:23;13.80;;;7.60;;
65202;SDS011;51788;45.124;38.966;2022-12-10T11:35:01;20.75;;;7.30;;
65202;SDS011;51788;45.124;38.966;2022-12-10T11:48:26;10.90;;;7.57;;
65202;SDS011;51788;45.124;38.966;2022-12-10T11:51:06;12.80;;;7.50;;
65202;SDS011;51788;45.124;38.966;2022-12-10T12:01:48;8.93;;;7.80;;
65202;SDS011;51788;45.124;38.966;2022-12-10T12:15:31;17.30;;;8.52;;
65202;SDS011;51788;45.124;38.966;2022-12-10T12:18:22;11.32;;;8.15;;
65202;SDS011;51788;45.124;38.966;2022-12-10T12:20:56;24.15;;;9.23;;
65202;SDS011;51788;45.124;38.966;2022-12-10T12:23:26;20.27;;;9.30;;
65202;SDS011;51788;45.124;38.966;2022-12-10T12:26:08;17.63;;;9.52;;
65202;SDS011;51788;45.124;38.966;2022-12-10T12:31:46;15.25;;;9.48;;
65202;SDS011;51788;45.124;38.966;2022-12-10T12:37:04;23.10;;;9.57;;
65202;SDS011;51788;45.124;38.966;2022-12-10T12:39:43;24.00;;;11.55;;
65202;SDS011;51788;45.124;38.966;2022-12-10T12:45:12;17.08;;;10.65;;
65202;SDS011;51788;45.124;38.966;2022-12-10T12:53:03;33.35;;;11.95;;
65202;SDS011;51788;45.124;38.966;2022-12-10T12:55:38;18.40;;;11.57;;
65202;SDS011;51788;45.124;38.966;2022-12-10T12:58:36;22.35;;;13.73;;
65202;SDS011;51788;45.124;38.966;2022-12-10T13:03:51;23.15;;;13.43;;
65202;SDS011;51788;45.124;38.966;2022-12-10T13:06:23;25.17;;;13.40;;
65202;SDS011;51788;45.124;38.966;2022-12-10T13:11:42;18.70;;;14.20;;
65202;SDS011;51788;45.124;38.966;2022-12-10T13:14:32;28.23;;;13.68;;
65202;SDS011;51788;45.124;38.966;2022-12-10T13:22:59;40.20;;;16.20;;
65202;SDS011;51788;45.124;38.966;2022-12-10T13:31:08;49.25;;;26.30;;
65202;SDS011;51788;45.124;38.966;2022-12-10T13:36:37;55.83;;;28.52;;
65202;SDS011;51788;45.124;38.966;2022-12-10T13:39:31;52.40;;;27.08;;
65202;SDS011;51788;45.124;38.966;2022-12-10T13:45:03;53.40;;;28.00;;
65202;SDS011;51788;45.124;38.966;2022-12-10T13:53:16;48.40;;;23.40;;
65202;SDS011;51788;45.124;38.966;2022-12-10T13:55:59;59.05;;;25.95;;
65202;SDS011;51788;45.124;38.966;2022-12-10T13:58:37;52.80;;;24.65;;
65202;SDS011;51788;45.124;38.966;2022-12-10T14:01:29;44.25;;;25.25;;
65202;SDS011;51788;45.124;38.966;2022-12-10T14:07:17;63.53;;;29.58;;
65202;SDS011;51788;45.124;38.966;2022-12-10T14:09:54;95.00;;;35.80;;
65202;SDS011;51788;45.124;38.966;2022-12-10T14:12:30;113.45;;;39.17;;
65202;SDS011;51788;45.124;38.966;2022-12-10T14:15:00;140.38;;;44.40;;
65202;SDS011;51788;45.124;38.966;2022-12-10T14:17:40;118.07;;;45.80;;
65202;SDS011;51788;45.124;38.966;2022-12-10T14:20:08;112.45;;;48.63;;
65202;SDS011;51788;45.124;38.966;2022-12-10T14:22:49;113.80;;;41.60;;
65202;SDS011;51788;45.124;38.966;2022-12-10T14:25:18;76.70;;;35.28;;
65202;SDS011;51788;45.124;38.966;2022-12-10T14:27:51;107.90;;;37.47;;
65202;SDS011;51788;45.124;38.966;2022-12-10T14:30:21;78.00;;;35.73;;
65202;SDS011;51788;45.124;38.966;2022-12-10T14:32:49;91.55;;;34.70;;
65202;SDS011;51788;45.124;38.966;2022-12-10T14:35:19;78.30;;;35.75;;
65202;SDS011;51788;45.124;38.966;2022-12-10T14:37:48;69.28;;;32.85;;
65202;SDS011;51788;45.124;38.966;2022-12-10T14:40:19;79.65;;;33.72;;
65202;SDS011;51788;45.124;38.966;2022-12-10T14:42:49;73.75;;;28.67;;
65202;SDS011;51788;45.124;38.966;2022-12-10T14:45:18;63.55;;;27.73;;
65202;SDS011;51788;45.124;38.966;2022-12-10T14:47:45;53.35;;;27.65;;
65202;SDS011;51788;45.124;38.966;2022-12-10T14:50:14;58.83;;;28.83;;
65202;SDS011;51788;45.124;38.966;2022-12-10T14:52:43;67.00;;;31.00;;
65202;SDS011;51788;45.124;38.966;2022-12-10T14:55:14;76.63;;;32.33;;
65202;SDS011;51788;45.124;38.966;2022-12-10T14:57:48;105.78;;;53.60;;
65202;SDS011;51788;45.124;38.966;2022-12-10T15:00:21;92.18;;;44.75;;
65202;SDS011;51788;45.124;38.966;2022-12-10T15:02:58;130.43;;;62.28;;
65202;SDS011;51788;45.124;38.966;2022-12-10T15:05:27;228.32;;;108.40;;
65202;SDS011;51788;45.124;38.966;2022-12-10T15:10:37;183.98;;;82.47;;
65202;SDS011;51788;45.124;38.966;2022-12-10T15:13:05;294.95;;;132.07;;
65202;SDS011;51788;45.124;38.966;2022-12-10T15:15:37;267.98;;;117.05;;
65202;SDS011;51788;45.124;38.966;2022-12-10T15:20:38;102.22;;;53.90;;
65202;SDS011;51788;45.124;38.966;2022-12-10T15:23:31;90.07;;;44.92;;
65202;SDS011;51788;45.124;38.966;2022-12-10T15:28:32;52.88;;;27.85;;
65202;SDS011;51788;45.124;38.966;2022-12-10T15:36:31;36.00;;;22.25;;
65202;SDS011;51788;45.124;38.966;2022-12-10T15:39:14;37.40;;;21.85;;
65202;SDS011;51788;45.124;38.966;2022-12-10T15:41:51;42.55;;;22.60;;
65202;SDS011;51788;45.124;38.966;2022-12-10T15:47:18;40.53;;;21.80;;
65202;SDS011;51788;45.124;38.966;2022-12-10T15:49:46;56.55;;;27.60;;
65202;SDS011;51788;45.124;38.966;2022-12-10T15:52:14;60.03;;;28.98;;
65202;SDS011;51788;45.124;38.966;2022-12-10T15:54:45;54.10;;;26.08;;
65202;SDS011;51788;45.124;38.966;2022-12-10T15:59:46;60.28;;;29.88;;
65202;SDS011;51788;45.124;38.966;2022-12-10T16:04:58;77.90;;;31.55;;
65202;SDS011;51788;45.124;38.966;2022-12-10T16:07:24;69.53;;;33.28;;
65202;SDS011;51788;45.124;38.966;2022-12-10T16:09:50;72.05;;;32.13;;
65202;SDS011;51788;45.124;38.966;2022-12-10T16:12:16;68.80;;;31.52;;
65202;SDS011;51788;45.124;38.966;2022-12-10T16:14:48;59.88;;;31.02;;
65202;SDS011;51788;45.124;38.966;2022-12-10T16:17:25;73.13;;;34.15;;
65202;SDS011;51788;45.124;38.966;2022-12-10T16:19:59;80.57;;;35.92;;
65202;SDS011;51788;45.124;38.966;2022-12-10T16:22:44;76.38;;;33.67;;
65202;SDS011;51788;45.124;38.966;2022-12-10T16:25:11;65.38;;;31.52;;
65202;SDS011;51788;45.124;38.966;2022-12-10T16:27:37;68.93;;;31.92;;
65202;SDS011;51788;45.124;38.966;2022-12-10T16:32:38;59.75;;;35.00;;
65202;SDS011;51788;45.124;38.966;2022-12-10T16:35:04;62.45;;;32.58;;
65202;SDS011;51788;45.124;38.966;2022-12-10T16:37:30;75.10;;;42.63;;
65202;SDS011;51788;45.124;38.966;2022-12-10T16:39:56;66.97;;;35.20;;
65202;SDS011;51788;45.124;38.966;2022-12-10T16:42:22;59.67;;;34.85;;
65202;SDS011;51788;45.124;38.966;2022-12-10T16:44:54;54.45;;;29.98;;
65202;SDS011;51788;45.124;38.966;2022-12-10T16:47:20;69.18;;;30.83;;
65202;SDS011;51788;45.124;38.966;2022-12-10T16:49:46;55.33;;;31.02;;